createdAt,value
2023-04-28T00:00:52.771Z,41.31
2023-04-28T00:03:19.475Z,41.50
2023-04-28T00:05:46.912Z,41.75
2023-04-28T00:08:13.574Z,41.37
2023-04-28T00:10:40.291Z,41.22
2023-04-28T00:13:06.821Z,41.65
2023-04-28T00:15:33.330Z,41.46
2023-04-28T00:17:59.890Z,41.70
2023-04-28T00:20:26.397Z,41.16
2023-04-28T00:22:52.979Z,41.49
2023-04-28T00:25:19.504Z,41.17
2023-04-28T00:27:46.040Z,41.41
2023-04-28T00:30:12.709Z,41.65
2023-04-28T00:32:39.309Z,41.64
2023-04-28T00:35:06.987Z,41.76
2023-04-28T00:37:36.889Z,41.55
2023-04-28T00:40:03.828Z,41.65
2023-04-28T00:42:30.585Z,41.62
2023-04-28T00:44:57.733Z,42.15
2023-04-28T00:47:24.591Z,41.59
2023-04-28T00:49:52.169Z,41.45
2023-04-28T00:52:18.675Z,41.69
2023-04-28T00:54:47.677Z,41.17
2023-04-28T00:57:14.160Z,41.62
2023-04-28T00:59:40.744Z,41.66
2023-04-28T01:02:07.837Z,41.81
2023-04-28T01:04:36.115Z,41.77
2023-04-28T01:07:03.959Z,41.38
2023-04-28T01:09:30.520Z,41.40
2023-04-28T01:11:58.391Z,41.57
2023-04-28T01:14:26.120Z,41.42
2023-04-28T01:16:53.724Z,41.40
2023-04-28T01:19:24.882Z,41.67
2023-04-28T01:21:51.652Z,41.37
2023-04-28T01:24:18.871Z,41.79
2023-04-28T01:26:46.279Z,41.63
2023-04-28T01:29:12.933Z,41.45
2023-04-28T01:31:39.855Z,41.79
2023-04-28T01:34:06.507Z,41.37
2023-04-28T01:36:35.939Z,41.92
2023-04-28T01:39:04.526Z,41.42
2023-04-28T01:41:31.170Z,41.83
2023-04-28T01:43:57.767Z,41.50
2023-04-28T01:46:24.413Z,41.53
2023-04-28T01:48:50.965Z,41.55
2023-04-28T01:51:17.586Z,41.60
2023-04-28T01:53:44.115Z,41.43
2023-04-28T01:56:10.647Z,41.53
2023-04-28T01:58:37.219Z,41.74
2023-04-28T02:01:03.865Z,42.01
2023-04-28T02:03:30.618Z,41.50
2023-04-28T02:05:57.269Z,41.45
2023-04-28T02:08:23.843Z,41.90
2023-04-28T02:10:50.860Z,41.96
2023-04-28T02:13:17.542Z,41.60
2023-04-28T02:15:44.388Z,41.96
2023-04-28T02:18:11.309Z,41.78
2023-04-28T02:20:37.884Z,41.69
2023-04-28T02:23:04.453Z,41.92
2023-04-28T02:25:31.035Z,41.86
2023-04-28T02:27:57.747Z,41.67
2023-04-28T02:30:24.273Z,41.60
2023-04-28T02:32:51.354Z,41.50
2023-04-28T02:35:18.088Z,42.00
2023-04-28T02:37:44.678Z,41.83
2023-04-28T02:40:11.607Z,41.97
2023-04-28T02:42:38.182Z,41.83
2023-04-28T02:45:05.645Z,41.80
2023-04-28T02:47:32.200Z,41.84
2023-04-28T02:49:58.784Z,41.92
2023-04-28T02:52:25.292Z,41.88
2023-04-28T02:54:54.639Z,41.97
2023-04-28T02:57:21.269Z,41.96
2023-04-28T02:59:47.793Z,41.68
2023-04-28T03:02:14.751Z,41.92
2023-04-28T03:04:41.630Z,41.78
2023-04-28T03:07:08.441Z,42.05
2023-04-28T03:09:34.986Z,41.96
2023-04-28T03:12:03.349Z,42.09
2023-04-28T03:14:29.927Z,42.05
2023-04-28T03:16:57.921Z,41.86
2023-04-28T03:19:24.506Z,42.13
2023-04-28T03:21:51.131Z,42.18
2023-04-28T03:24:17.947Z,42.25
2023-04-28T03:26:44.809Z,41.79
2023-04-28T03:29:11.464Z,42.00
2023-04-28T03:31:38.023Z,41.94
2023-04-28T03:34:04.739Z,41.98
2023-04-28T03:36:32.091Z,41.93
2023-04-28T03:38:58.621Z,41.96
2023-04-28T03:41:25.178Z,42.26
2023-04-28T03:43:53.331Z,42.14
2023-04-28T03:46:19.890Z,41.97
2023-04-28T03:48:46.578Z,42.29
2023-04-28T03:51:13.265Z,41.79
2023-04-28T03:53:39.821Z,42.23
2023-04-28T03:56:07.004Z,41.88
2023-04-28T03:58:33.551Z,42.24
2023-04-28T04:01:00.936Z,42.30
2023-04-28T04:03:27.911Z,41.96
2023-04-28T04:05:55.669Z,42.22
2023-04-28T04:08:22.408Z,42.33
2023-04-28T04:10:48.918Z,42.17
2023-04-28T04:13:15.463Z,42.11
2023-04-28T04:15:42.046Z,41.90
2023-04-28T04:18:08.753Z,42.15
2023-04-28T04:20:35.342Z,41.81
2023-04-28T04:23:02.008Z,41.56
2023-04-28T04:25:28.613Z,42.07
2023-04-28T04:27:55.492Z,41.85
2023-04-28T04:30:22.196Z,42.26
2023-04-28T04:32:48.901Z,42.47
2023-04-28T04:35:15.727Z,41.90
2023-04-28T04:37:42.203Z,41.94
2023-04-28T04:40:09.287Z,41.92
2023-04-28T04:42:35.984Z,42.09
2023-04-28T04:45:02.633Z,42.20
2023-04-28T04:47:29.214Z,41.94
2023-04-28T04:49:56.562Z,42.26
2023-04-28T04:52:23.622Z,42.04
2023-04-28T04:54:50.154Z,42.38
2023-04-28T04:57:16.733Z,42.12
2023-04-28T04:59:43.472Z,42.09
2023-04-28T05:02:10.094Z,42.24
2023-04-28T05:04:36.794Z,42.04
2023-04-28T05:07:03.388Z,42.35
2023-04-28T05:09:30.656Z,42.29
2023-04-28T05:11:57.872Z,42.06
2023-04-28T05:14:24.422Z,42.74
2023-04-28T05:16:51.233Z,42.41
2023-04-28T05:19:17.849Z,41.95
2023-04-28T05:21:44.405Z,41.96
2023-04-28T05:24:11.197Z,42.27
2023-04-28T05:26:37.752Z,42.52
2023-04-28T05:29:04.286Z,42.18
2023-04-28T05:31:30.929Z,42.23
2023-04-28T05:33:57.473Z,42.39
2023-04-28T05:36:24.231Z,42.25
2023-04-28T05:38:50.934Z,42.39
2023-04-28T05:41:17.517Z,42.37
2023-04-28T05:43:44.072Z,42.47
2023-04-28T05:46:28.366Z,42.50
2023-04-28T05:48:56.539Z,42.58
2023-04-28T05:51:23.225Z,42.43
2023-04-28T05:53:49.778Z,42.64
2023-04-28T05:56:17.120Z,41.96
2023-04-28T05:58:48.050Z,42.70
2023-04-28T06:01:14.645Z,42.62
2023-04-28T06:03:42.047Z,42.58
2023-04-28T06:06:10.962Z,42.47
2023-04-28T06:08:38.619Z,41.99
2023-04-28T06:11:06.019Z,42.39
2023-04-28T06:13:32.739Z,42.45
2023-04-28T06:15:59.515Z,42.06
2023-04-28T06:18:27.092Z,42.60
2023-04-28T06:20:53.702Z,42.51
2023-04-28T06:23:20.314Z,42.86
2023-04-28T06:25:46.968Z,42.42
2023-04-28T06:28:14.901Z,42.41
2023-04-28T06:30:41.644Z,42.27
2023-04-28T06:33:08.459Z,42.63
2023-04-28T06:35:36.471Z,42.92
2023-04-28T06:38:04.617Z,42.67
2023-04-28T06:40:31.710Z,42.52
2023-04-28T06:42:58.337Z,42.73
2023-04-28T06:45:24.911Z,42.50
2023-04-28T06:47:51.793Z,42.81
2023-04-28T06:50:18.290Z,42.83
2023-04-28T06:52:44.867Z,42.95
2023-04-28T06:55:15.413Z,42.85
2023-04-28T06:57:42.502Z,42.76
2023-04-28T07:00:10.411Z,42.59
2023-04-28T07:02:37.270Z,42.62
2023-04-28T07:05:04.518Z,42.86
2023-04-28T07:07:31.431Z,42.95
2023-04-28T07:09:58.994Z,42.89
2023-04-28T07:12:25.546Z,43.13
2023-04-28T07:14:52.140Z,42.98
2023-04-28T07:17:18.790Z,42.98
2023-04-28T07:19:45.620Z,42.64
2023-04-28T07:22:12.177Z,43.05
2023-04-28T07:24:39.307Z,42.61
2023-04-28T07:27:06.179Z,42.81
2023-04-28T07:29:35.043Z,42.94
2023-04-28T07:32:05.268Z,42.99
2023-04-28T07:34:33.311Z,42.88
2023-04-28T07:36:59.826Z,42.82
2023-04-28T07:39:26.440Z,42.73
2023-04-28T07:41:52.955Z,43.04
2023-04-28T07:44:20.572Z,42.88
2023-04-28T07:46:47.276Z,42.80
2023-04-28T07:49:13.856Z,43.04
2023-04-28T07:51:40.618Z,42.95
2023-04-28T07:54:07.237Z,43.24
2023-04-28T07:56:33.776Z,42.87
2023-04-28T07:59:00.472Z,42.49
2023-04-28T08:01:27.076Z,43.18
2023-04-28T08:03:53.832Z,42.76
2023-04-28T08:06:20.672Z,43.02
2023-04-28T08:08:47.237Z,43.34
2023-04-28T08:11:13.738Z,42.90
2023-04-28T08:13:40.272Z,43.24
2023-04-28T08:16:06.972Z,43.17
2023-04-28T08:18:33.909Z,43.28
2023-04-28T08:21:00.676Z,43.11
2023-04-28T08:23:28.463Z,43.31
2023-04-28T08:25:55.283Z,43.08
2023-04-28T08:28:21.817Z,43.07
2023-04-28T08:30:48.673Z,43.42
2023-04-28T08:33:15.306Z,43.46
2023-04-28T08:35:41.900Z,43.45
2023-04-28T08:38:13.790Z,43.18
2023-04-28T08:40:42.653Z,43.18
2023-04-28T08:43:13.693Z,43.33
2023-04-28T08:45:45.410Z,43.39
2023-04-28T08:48:19.271Z,43.40
2023-04-28T08:50:53.363Z,43.46
2023-04-28T08:53:26.945Z,43.63
2023-04-28T08:55:58.054Z,44.19
2023-04-28T08:58:28.448Z,43.90
2023-04-28T09:00:55.065Z,43.68
2023-04-28T09:03:22.100Z,44.10
2023-04-28T09:05:49.242Z,43.96
2023-04-28T09:08:15.982Z,43.94
2023-04-28T09:10:42.780Z,44.21
2023-04-28T09:13:09.678Z,44.02
2023-04-28T09:15:38.189Z,44.12
2023-04-28T09:18:06.920Z,44.25
2023-04-28T09:20:35.656Z,44.15
2023-04-28T09:23:17.938Z,44.22
2023-04-28T09:25:57.613Z,44.43
2023-04-28T09:28:24.214Z,44.20
2023-04-28T09:30:50.800Z,44.46
2023-04-28T09:33:17.638Z,44.67
2023-04-28T09:35:48.450Z,44.80
2023-04-28T09:38:16.294Z,44.18
2023-04-28T09:40:54.701Z,44.58
2023-04-28T09:43:34.431Z,44.81
2023-04-28T09:46:04.578Z,44.69
2023-04-28T09:48:38.447Z,44.96
2023-04-28T09:51:06.852Z,44.72
2023-04-28T09:53:35.544Z,44.72
2023-04-28T09:56:05.166Z,44.55
2023-04-28T09:58:34.292Z,44.62
2023-04-28T10:01:03.996Z,45.07
2023-04-28T10:03:31.269Z,44.79
2023-04-28T10:05:59.215Z,44.99
2023-04-28T10:08:27.580Z,44.91
2023-04-28T10:10:55.582Z,45.33
2023-04-28T10:13:22.889Z,45.24
2023-04-28T10:15:50.917Z,44.97
2023-04-28T10:18:18.444Z,45.23
2023-04-28T10:20:50.903Z,45.17
2023-04-28T10:23:46.916Z,45.37
2023-04-28T10:26:15.544Z,45.25
2023-04-28T10:28:47.368Z,45.19
2023-04-28T10:31:20.817Z,45.32
2023-04-28T10:33:48.014Z,45.49
2023-04-28T10:36:54.937Z,45.93
2023-04-28T10:39:21.516Z,45.46
2023-04-28T10:41:49.067Z,45.88
2023-04-28T10:44:31.064Z,46.70
2023-04-28T10:47:06.596Z,46.70
2023-04-28T10:50:11.981Z,48.25
2023-04-28T10:52:38.816Z,47.38
2023-04-28T10:55:27.019Z,48.82
2023-04-28T10:58:15.501Z,49.39
2023-04-28T11:00:43.080Z,49.07
2023-04-28T11:03:10.064Z,48.80
2023-04-28T11:05:37.072Z,49.00
2023-04-28T11:08:19.018Z,50.25
2023-04-28T11:11:10.072Z,50.58
2023-04-28T11:13:36.729Z,49.29
2023-04-28T11:16:06.928Z,49.67
2023-04-28T11:18:56.120Z,50.48
2023-04-28T11:21:24.486Z,49.85
2023-04-28T11:23:51.275Z,50.04
2023-04-28T11:26:19.354Z,49.81
2023-04-28T11:28:54.812Z,50.12
2023-04-28T11:31:26.293Z,49.90
2023-04-28T11:34:00.859Z,49.81
2023-04-28T11:36:33.608Z,50.08
2023-04-28T11:39:00.493Z,49.88
2023-04-28T11:41:27.180Z,49.62
2023-04-28T11:43:54.148Z,49.58
2023-04-28T11:46:23.741Z,49.34
2023-04-28T11:49:04.519Z,50.33
2023-04-28T11:51:36.275Z,49.57
2023-04-28T11:54:03.591Z,49.54
2023-04-28T11:56:30.633Z,49.69
2023-04-28T11:59:03.301Z,49.57
2023-04-28T12:01:31.343Z,49.85
2023-04-28T12:03:57.970Z,49.37
2023-04-28T12:06:25.185Z,49.83
2023-04-28T12:08:52.665Z,49.30
2023-04-28T12:11:21.898Z,49.35
2023-04-28T12:14:06.277Z,49.29
2023-04-28T12:16:43.389Z,49.26
2023-04-28T12:19:11.290Z,48.99
2023-04-28T12:21:39.722Z,49.30
2023-04-28T12:24:21.298Z,49.05
2023-04-28T12:26:48.968Z,48.95
2023-04-28T12:29:41.761Z,49.31
2023-04-28T12:32:11.106Z,48.83
2023-04-28T12:34:39.843Z,49.14
2023-04-28T12:37:07.008Z,49.04
2023-04-28T12:39:37.126Z,48.70
2023-04-28T12:42:06.197Z,48.76
2023-04-28T12:44:37.884Z,49.00
2023-04-28T12:47:06.451Z,49.12
2023-04-28T12:49:34.785Z,48.88
2023-04-28T12:52:01.695Z,49.24
2023-04-28T12:54:28.373Z,48.83
2023-04-28T12:56:55.182Z,48.67
2023-04-28T12:59:22.481Z,48.84
2023-04-28T13:01:50.398Z,48.62
2023-04-28T13:04:18.617Z,48.68
2023-04-28T13:06:45.544Z,49.19
2023-04-28T13:09:12.420Z,49.17
2023-04-28T13:11:39.451Z,49.22
2023-04-28T13:14:06.383Z,48.86
2023-04-28T13:16:33.873Z,49.10
2023-04-28T13:19:06.327Z,48.56
2023-04-28T13:21:33.159Z,48.99
2023-04-28T13:23:59.649Z,48.67
2023-04-28T13:26:26.893Z,49.22
2023-04-28T13:28:53.551Z,48.59
2023-04-28T13:31:20.533Z,49.00
2023-04-28T13:33:47.401Z,49.22
2023-04-28T13:36:14.129Z,48.55
2023-04-28T13:38:40.717Z,49.12
2023-04-28T13:41:07.696Z,48.66
2023-04-28T13:43:34.256Z,49.09
2023-04-28T13:46:01.674Z,48.49
2023-04-28T13:48:29.177Z,48.39
2023-04-28T13:50:56.014Z,49.07
2023-04-28T13:53:22.719Z,49.24
2023-04-28T13:55:51.080Z,49.11
2023-04-28T13:58:17.636Z,48.76
2023-04-28T14:00:44.194Z,48.63
2023-04-28T14:03:11.634Z,49.17
2023-04-28T14:05:46.135Z,49.15
2023-04-28T14:08:19.315Z,48.94
2023-04-28T14:10:48.033Z,48.60
2023-04-28T14:13:14.634Z,48.72
2023-04-28T14:15:51.250Z,48.85
2023-04-28T14:18:24.392Z,49.19
2023-04-28T14:20:50.973Z,48.87
2023-04-28T14:23:17.606Z,49.26
2023-04-28T14:25:44.283Z,49.80
2023-04-28T14:28:11.324Z,49.28
2023-04-28T14:30:38.021Z,49.13
2023-04-28T14:33:04.741Z,50.34
2023-04-28T14:35:32.425Z,50.37
2023-04-28T14:37:59.092Z,50.12
2023-04-28T14:40:25.795Z,50.35
2023-04-28T14:42:52.915Z,49.82
2023-04-28T14:45:19.603Z,50.08
2023-04-28T14:47:46.268Z,50.13
2023-04-28T14:50:14.203Z,50.10
2023-04-28T14:52:41.258Z,50.04
2023-04-28T14:55:08.430Z,50.08
2023-04-28T14:57:35.260Z,50.36
2023-04-28T15:00:03.983Z,50.65
2023-04-28T15:02:31.231Z,50.72
2023-04-28T15:04:58.452Z,50.45
2023-04-28T15:07:30.962Z,50.76
2023-04-28T15:09:59.443Z,50.13
2023-04-28T15:12:26.312Z,49.99
2023-04-28T15:14:53.917Z,50.35
2023-04-28T15:17:21.416Z,50.93
2023-04-28T15:19:48.026Z,50.38
2023-04-28T15:22:14.740Z,50.41
2023-04-28T15:24:41.303Z,50.27
2023-04-28T15:27:07.958Z,50.46
2023-04-28T15:29:34.529Z,50.99
2023-04-28T15:32:01.431Z,50.61
2023-04-28T15:34:28.621Z,50.44
2023-04-28T15:36:55.150Z,50.71
2023-04-28T15:39:21.878Z,50.93
2023-04-28T15:41:48.454Z,50.61
2023-04-28T15:44:15.428Z,50.77
2023-04-28T15:46:42.055Z,50.62
2023-04-28T15:49:08.976Z,50.59
2023-04-28T15:51:35.491Z,50.09
2023-04-28T15:54:02.064Z,50.17
2023-04-28T15:56:28.706Z,50.67
2023-04-28T15:58:55.446Z,50.60
2023-04-28T16:01:22.539Z,50.28
2023-04-28T16:03:49.365Z,49.70
2023-04-28T16:06:16.057Z,50.45
2023-04-28T16:08:43.041Z,49.76
2023-04-28T16:11:11.379Z,49.31
2023-04-28T16:13:37.915Z,49.48
2023-04-28T16:16:04.757Z,49.90
2023-04-28T16:18:31.700Z,49.43
2023-04-28T16:20:58.373Z,49.53
2023-04-28T16:23:24.914Z,49.15
2023-04-28T16:25:51.596Z,49.67
2023-04-28T16:28:18.204Z,49.38
2023-04-28T16:30:44.862Z,49.62
2023-04-28T16:33:11.827Z,49.41
2023-04-28T16:35:38.382Z,49.22
2023-04-28T16:38:05.111Z,49.31
2023-04-28T16:40:31.621Z,49.15
2023-04-28T16:42:58.195Z,48.93
2023-04-28T16:45:24.727Z,48.89
2023-04-28T16:47:51.694Z,48.75
2023-04-28T16:50:18.301Z,49.33
2023-04-28T16:52:45.013Z,49.42
2023-04-28T16:55:11.761Z,48.92
2023-04-28T16:57:38.413Z,49.26
2023-04-28T17:00:06.265Z,49.53
2023-04-28T17:02:34.567Z,49.26
2023-04-28T17:05:01.293Z,48.95
2023-04-28T17:07:27.900Z,48.82
2023-04-28T17:09:54.548Z,48.54
2023-04-28T17:12:23.228Z,48.80
2023-04-28T17:14:51.134Z,48.87
2023-04-28T17:17:18.127Z,48.89
2023-04-28T17:19:44.670Z,48.68
2023-04-28T17:22:11.794Z,48.66
2023-04-28T17:24:38.344Z,48.70
2023-04-28T17:27:04.902Z,48.67
2023-04-28T17:29:31.852Z,49.31
2023-04-28T17:31:58.419Z,49.16
2023-04-28T17:34:25.124Z,49.27
2023-04-28T17:36:51.663Z,49.33
2023-04-28T17:39:18.235Z,48.71
2023-04-28T17:41:45.221Z,48.78
2023-04-28T17:44:11.904Z,48.62
2023-04-28T17:46:38.578Z,49.36
2023-04-28T17:49:05.409Z,49.36
2023-04-28T17:51:32.534Z,48.86
2023-04-28T17:53:59.450Z,49.49
2023-04-28T17:56:26.376Z,49.18
2023-04-28T17:58:52.925Z,49.88
2023-04-28T18:01:19.763Z,49.12
2023-04-28T18:03:46.744Z,49.34
2023-04-28T18:06:13.845Z,49.81
2023-04-28T18:08:40.989Z,49.32
2023-04-28T18:11:09.980Z,49.96
2023-04-28T18:13:36.812Z,49.51
2023-04-28T18:16:05.062Z,49.97
2023-04-28T18:18:34.868Z,49.75
2023-04-28T18:21:02.749Z,49.60
2023-04-28T18:23:30.507Z,50.08
2023-04-28T18:25:57.192Z,49.91
2023-04-28T18:28:23.801Z,49.97
2023-04-28T18:30:50.692Z,49.76
2023-04-28T18:33:22.997Z,50.00
2023-04-28T18:35:58.690Z,49.74
2023-04-28T18:38:26.070Z,49.95
2023-04-28T18:40:52.613Z,50.03
2023-04-28T18:43:19.181Z,49.20
2023-04-28T18:45:45.850Z,49.46
2023-04-28T18:48:12.505Z,49.63
2023-04-28T18:50:39.359Z,49.06
2023-04-28T18:53:06.542Z,48.84
2023-04-28T18:55:33.586Z,49.21
2023-04-28T18:58:01.934Z,49.07
2023-04-28T19:00:28.786Z,49.25
2023-04-28T19:02:55.687Z,49.20
2023-04-28T19:05:22.700Z,49.63
2023-04-28T19:07:49.251Z,49.21
2023-04-28T19:10:15.857Z,48.67
2023-04-28T19:12:42.388Z,48.87
2023-04-28T19:15:09.329Z,49.44
2023-04-28T19:17:35.997Z,49.00
2023-04-28T19:20:03.996Z,49.38
2023-04-28T19:22:40.177Z,49.22
2023-04-28T19:25:07.862Z,49.00
2023-04-28T19:27:37.026Z,49.15
2023-04-28T19:30:05.165Z,48.83
2023-04-28T19:32:31.754Z,48.80
2023-04-28T19:34:58.360Z,49.31
2023-04-28T19:37:25.743Z,49.16
2023-04-28T19:39:52.440Z,48.82
2023-04-28T19:42:19.469Z,49.07
2023-04-28T19:44:47.265Z,49.28
2023-04-28T19:47:14.599Z,48.91
2023-04-28T19:49:42.144Z,49.24
2023-04-28T19:52:10.302Z,48.68
2023-04-28T19:54:39.724Z,48.63
2023-04-28T19:57:06.315Z,49.06
2023-04-28T19:59:33.766Z,48.99
2023-04-28T20:02:00.458Z,48.55
2023-04-28T20:04:29.070Z,48.82
2023-04-28T20:06:56.104Z,48.77
2023-04-28T20:09:22.735Z,48.68
2023-04-28T20:11:49.507Z,48.94
2023-04-28T20:14:16.132Z,49.11
2023-04-28T20:16:43.339Z,48.65
2023-04-28T20:19:09.866Z,48.74
2023-04-28T20:21:37.289Z,48.61
2023-04-28T20:24:03.871Z,48.66
2023-04-28T20:26:31.200Z,48.48
2023-04-28T20:28:58.865Z,48.95
2023-04-28T20:31:25.632Z,48.77
2023-04-28T20:33:52.536Z,49.09
2023-04-28T20:36:19.109Z,49.14
2023-04-28T20:38:45.983Z,49.37
2023-04-28T20:41:12.648Z,49.58
2023-04-28T20:43:39.218Z,49.65
2023-04-28T20:46:16.581Z,49.65
2023-04-28T20:48:43.157Z,48.91
2023-04-28T20:51:11.005Z,48.88
2023-04-28T20:53:39.535Z,49.43
2023-04-28T20:56:06.848Z,49.37
2023-04-28T20:58:33.415Z,49.66
2023-04-28T21:01:00.031Z,49.22
2023-04-28T21:03:26.820Z,49.52
2023-04-28T21:05:53.551Z,49.60
2023-04-28T21:08:20.131Z,49.61
2023-04-28T21:10:46.672Z,49.83
2023-04-28T21:13:13.257Z,48.97
2023-04-28T21:15:40.700Z,49.66
2023-04-28T21:18:07.673Z,49.42
2023-04-28T21:20:34.336Z,50.01
2023-04-28T21:23:00.926Z,49.59
2023-04-28T21:25:28.089Z,49.58
2023-04-28T21:27:55.298Z,50.30
2023-04-28T21:30:22.221Z,50.18
2023-04-28T21:32:48.821Z,50.36
2023-04-28T21:35:16.334Z,50.02
2023-04-28T21:37:43.014Z,49.50
2023-04-28T21:40:09.972Z,49.46
2023-04-28T21:42:36.497Z,49.38
2023-04-28T21:45:03.341Z,50.09
2023-04-28T21:47:30.080Z,49.49
2023-04-28T21:49:56.962Z,50.02
2023-04-28T21:52:23.541Z,49.76
2023-04-28T21:54:50.113Z,49.66
2023-04-28T21:57:16.833Z,49.90
2023-04-28T21:59:44.040Z,50.14
2023-04-28T22:02:11.532Z,50.14
2023-04-28T22:04:38.713Z,49.43
2023-04-28T22:07:05.772Z,50.08
2023-04-28T22:09:33.417Z,49.75
2023-04-28T22:11:59.995Z,49.91
2023-04-28T22:14:40.516Z,49.74
2023-04-28T22:17:08.058Z,50.23
2023-04-28T22:19:34.591Z,49.67
2023-04-28T22:22:01.260Z,49.81
2023-04-28T22:24:27.910Z,49.82
2023-04-28T22:26:55.112Z,50.18
2023-04-28T22:29:21.819Z,49.92
2023-04-28T22:31:48.778Z,49.69
2023-04-28T22:34:16.421Z,50.19
2023-04-28T22:36:43.018Z,50.22
2023-04-28T22:39:09.527Z,49.88
2023-04-28T22:41:36.098Z,49.67
2023-04-28T22:44:02.709Z,49.95
2023-04-28T22:46:30.203Z,49.89
2023-04-28T22:48:56.814Z,50.09
2023-04-28T22:51:23.900Z,50.11
2023-04-28T22:53:50.735Z,50.25
2023-04-28T22:56:17.235Z,49.47
2023-04-28T22:58:44.552Z,49.30
2023-04-28T23:01:11.601Z,49.63
2023-04-28T23:03:38.796Z,49.93
2023-04-28T23:06:06.624Z,49.60
2023-04-28T23:08:35.135Z,49.87
2023-04-28T23:11:05.443Z,49.71
2023-04-28T23:13:32.119Z,49.47
2023-04-28T23:16:02.495Z,49.49
2023-04-28T23:18:31.651Z,49.61
2023-04-28T23:20:58.572Z,49.38
2023-04-28T23:23:25.137Z,49.87
2023-04-28T23:25:52.043Z,49.42
2023-04-28T23:28:18.935Z,49.63
2023-04-28T23:30:45.455Z,50.14
2023-04-28T23:33:11.978Z,49.26
2023-04-28T23:35:38.532Z,49.29
2023-04-28T23:38:05.020Z,49.85
2023-04-28T23:40:31.527Z,49.30
2023-04-28T23:42:58.150Z,49.51
2023-04-28T23:45:25.328Z,49.46
2023-04-28T23:47:53.329Z,49.22
2023-04-28T23:50:19.960Z,49.28
2023-04-28T23:52:47.162Z,48.94
2023-04-28T23:55:13.720Z,49.01
2023-04-28T23:57:40.665Z,49.26
